sensor_id;sensor_type;location;lat;lon;timestamp;pressure;altitude;pressure_sealevel;temperature;humidity
58785;BME280;44557;51.862;19.378;2022-12-01T00:00:38;100605.09;;;1.26;83.06
58785;BME280;44557;51.862;19.378;2022-12-01T00:01:51;100609.03;;;1.26;83.10
58785;BME280;44557;51.862;19.378;2022-12-01T00:02:52;100607.92;;;1.23;82.88
58785;BME280;44557;51.862;19.378;2022-12-01T00:03:54;100605.71;;;1.30;82.92
58785;BME280;44557;51.862;19.378;2022-12-01T00:04:56;100603.98;;;1.29;82.98
58785;BME280;44557;51.862;19.378;2022-12-01T00:06:10;100608.05;;;1.31;82.68
58785;BME280;44557;51.862;19.378;2022-12-01T00:07:12;100608.05;;;1.35;82.78
58785;BME280;44557;51.862;19.378;2022-12-01T00:08:13;100605.50;;;1.31;83.02
58785;BME280;44557;51.862;19.378;2022-12-01T00:09:15;100607.82;;;1.29;83.17
58785;BME280;44557;51.862;19.378;2022-12-01T00:10:36;100608.30;;;1.28;83.40
58785;BME280;44557;51.862;19.378;2022-12-01T00:11:37;100601.40;;;1.27;83.17
58785;BME280;44557;51.862;19.378;2022-12-01T00:12:39;100607.33;;;1.30;83.13
58785;BME280;44557;51.862;19.378;2022-12-01T00:13:43;100608.12;;;1.33;83.02
58785;BME280;44557;51.862;19.378;2022-12-01T00:14:45;100607.93;;;1.30;82.94
58785;BME280;44557;51.862;19.378;2022-12-01T00:15:55;100604.25;;;1.31;83.03
58785;BME280;44557;51.862;19.378;2022-12-01T00:16:56;100603.52;;;1.29;83.04
58785;BME280;44557;51.862;19.378;2022-12-01T00:17:58;100606.68;;;1.29;83.03
58785;BME280;44557;51.862;19.378;2022-12-01T00:18:59;100604.11;;;1.27;83.36
58785;BME280;44557;51.862;19.378;2022-12-01T00:20:01;100604.92;;;1.28;83.21
58785;BME280;44557;51.862;19.378;2022-12-01T00:21:02;100600.67;;;1.31;82.99
58785;BME280;44557;51.862;19.378;2022-12-01T00:22:04;100605.11;;;1.29;83.09
58785;BME280;44557;51.862;19.378;2022-12-01T00:23:06;100602.71;;;1.29;83.56
58785;BME280;44557;51.862;19.378;2022-12-01T00:24:09;100602.17;;;1.34;83.44
58785;BME280;44557;51.862;19.378;2022-12-01T00:25:13;100601.72;;;1.27;83.24
58785;BME280;44557;51.862;19.378;2022-12-01T00:26:17;100600.95;;;1.26;83.42
58785;BME280;44557;51.862;19.378;2022-12-01T00:27:19;100599.23;;;1.29;83.47
58785;BME280;44557;51.862;19.378;2022-12-01T00:28:20;100600.02;;;1.31;83.36
58785;BME280;44557;51.862;19.378;2022-12-01T00:29:22;100601.58;;;1.31;83.43
58785;BME280;44557;51.862;19.378;2022-12-01T00:30:23;100599.45;;;1.33;83.57
58785;BME280;44557;51.862;19.378;2022-12-01T00:31:26;100600.16;;;1.34;83.10
58785;BME280;44557;51.862;19.378;2022-12-01T00:32:29;100600.48;;;1.33;83.02
58785;BME280;44557;51.862;19.378;2022-12-01T00:33:30;100603.91;;;1.35;83.56
58785;BME280;44557;51.862;19.378;2022-12-01T00:34:32;100600.93;;;1.34;83.00
58785;BME280;44557;51.862;19.378;2022-12-01T00:35:33;100603.00;;;1.35;83.35
58785;BME280;44557;51.862;19.378;2022-12-01T00:36:35;100603.26;;;1.35;83.51
58785;BME280;44557;51.862;19.378;2022-12-01T00:37:37;100603.27;;;1.37;83.38
58785;BME280;44557;51.862;19.378;2022-12-01T00:38:38;100600.63;;;1.36;83.43
58785;BME280;44557;51.862;19.378;2022-12-01T00:39:40;100605.27;;;1.35;83.42
58785;BME280;44557;51.862;19.378;2022-12-01T00:40:41;100605.47;;;1.35;83.13
58785;BME280;44557;51.862;19.378;2022-12-01T00:41:43;100598.33;;;1.34;83.61
58785;BME280;44557;51.862;19.378;2022-12-01T00:42:45;100607.06;;;1.35;83.36
58785;BME280;44557;51.862;19.378;2022-12-01T00:43:46;100601.55;;;1.36;83.42
58785;BME280;44557;51.862;19.378;2022-12-01T00:44:48;100598.07;;;1.36;83.49
58785;BME280;44557;51.862;19.378;2022-12-01T00:45:50;100599.46;;;1.35;83.59
58785;BME280;44557;51.862;19.378;2022-12-01T00:46:52;100593.48;;;1.34;83.64
58785;BME280;44557;51.862;19.378;2022-12-01T00:47:54;100593.30;;;1.33;83.43
58785;BME280;44557;51.862;19.378;2022-12-01T00:48:55;100594.41;;;1.33;83.71
58785;BME280;44557;51.862;19.378;2022-12-01T00:49:57;100592.27;;;1.37;83.54
58785;BME280;44557;51.862;19.378;2022-12-01T00:50:58;100591.98;;;1.36;83.91
58785;BME280;44557;51.862;19.378;2022-12-01T00:52:00;100588.45;;;1.37;83.68
58785;BME280;44557;51.862;19.378;2022-12-01T00:53:01;100590.89;;;1.34;83.76
58785;BME280;44557;51.862;19.378;2022-12-01T00:54:03;100588.97;;;1.33;83.77
58785;BME280;44557;51.862;19.378;2022-12-01T00:55:05;100586.42;;;1.34;83.66
58785;BME280;44557;51.862;19.378;2022-12-01T00:56:06;100587.73;;;1.39;83.81
58785;BME280;44557;51.862;19.378;2022-12-01T00:57:08;100590.13;;;1.40;83.65
58785;BME280;44557;51.862;19.378;2022-12-01T00:58:10;100590.44;;;1.44;83.41
58785;BME280;44557;51.862;19.378;2022-12-01T00:59:11;100592.30;;;1.47;83.81
58785;BME280;44557;51.862;19.378;2022-12-01T01:00:14;100593.70;;;1.45;83.51
58785;BME280;44557;51.862;19.378;2022-12-01T01:01:18;100597.01;;;1.44;83.87
58785;BME280;44557;51.862;19.378;2022-12-01T01:02:19;100595.23;;;1.39;83.84
58785;BME280;44557;51.862;19.378;2022-12-01T01:03:21;100593.41;;;1.37;83.92
58785;BME280;44557;51.862;19.378;2022-12-01T01:04:22;100596.63;;;1.38;83.93
58785;BME280;44557;51.862;19.378;2022-12-01T01:05:24;100592.57;;;1.40;83.94
58785;BME280;44557;51.862;19.378;2022-12-01T01:06:25;100594.63;;;1.40;83.68
58785;BME280;44557;51.862;19.378;2022-12-01T01:07:28;100596.02;;;1.43;84.00
58785;BME280;44557;51.862;19.378;2022-12-01T01:08:30;100590.81;;;1.48;83.49
58785;BME280;44557;51.862;19.378;2022-12-01T01:09:31;100594.67;;;1.45;83.44
58785;BME280;44557;51.862;19.378;2022-12-01T01:10:40;100592.09;;;1.47;83.29
58785;BME280;44557;51.862;19.378;2022-12-01T01:11:42;100587.91;;;1.45;83.62
58785;BME280;44557;51.862;19.378;2022-12-01T01:12:44;100588.92;;;1.44;83.64
58785;BME280;44557;51.862;19.378;2022-12-01T01:13:45;100590.17;;;1.44;83.75
58785;BME280;44557;51.862;19.378;2022-12-01T01:14:47;100586.95;;;1.43;83.64
58785;BME280;44557;51.862;19.378;2022-12-01T01:16:19;100585.98;;;1.44;83.84
58785;BME280;44557;51.862;19.378;2022-12-01T01:17:20;100586.17;;;1.46;83.92
58785;BME280;44557;51.862;19.378;2022-12-01T01:18:22;100586.14;;;1.48;83.80
58785;BME280;44557;51.862;19.378;2022-12-01T01:19:24;100586.45;;;1.47;83.90
58785;BME280;44557;51.862;19.378;2022-12-01T01:20:25;100582.20;;;1.47;84.00
58785;BME280;44557;51.862;19.378;2022-12-01T01:21:27;100583.35;;;1.46;83.73
58785;BME280;44557;51.862;19.378;2022-12-01T01:22:28;100581.06;;;1.50;83.90
58785;BME280;44557;51.862;19.378;2022-12-01T01:23:30;100577.58;;;1.51;83.63
58785;BME280;44557;51.862;19.378;2022-12-01T01:24:32;100575.79;;;1.50;83.72
58785;BME280;44557;51.862;19.378;2022-12-01T01:25:34;100577.99;;;1.49;83.82
58785;BME280;44557;51.862;19.378;2022-12-01T01:26:36;100575.09;;;1.51;83.98
58785;BME280;44557;51.862;19.378;2022-12-01T01:27:38;100578.11;;;1.54;83.50
58785;BME280;44557;51.862;19.378;2022-12-01T01:28:40;100575.89;;;1.56;83.50
58785;BME280;44557;51.862;19.378;2022-12-01T01:29:41;100577.77;;;1.55;83.46
58785;BME280;44557;51.862;19.378;2022-12-01T01:30:43;100579.45;;;1.52;83.84
58785;BME280;44557;51.862;19.378;2022-12-01T01:31:45;100574.59;;;1.51;83.71
58785;BME280;44557;51.862;19.378;2022-12-01T01:32:46;100577.35;;;1.50;83.70
58785;BME280;44557;51.862;19.378;2022-12-01T01:33:48;100571.76;;;1.48;83.77
58785;BME280;44557;51.862;19.378;2022-12-01T01:34:49;100573.66;;;1.49;83.52
58785;BME280;44557;51.862;19.378;2022-12-01T01:35:51;100569.57;;;1.48;83.56
58785;BME280;44557;51.862;19.378;2022-12-01T06:18:47;100562.89;;;1.37;94.12
58785;BME280;44557;51.862;19.378;2022-12-01T06:19:48;100567.45;;;1.36;94.44
58785;BME280;44557;51.862;19.378;2022-12-01T06:20:50;100563.50;;;1.38;94.20
58785;BME280;44557;51.862;19.378;2022-12-01T06:21:52;100562.42;;;1.39;94.45
58785;BME280;44557;51.862;19.378;2022-12-01T06:22:53;100563.66;;;1.38;94.27
58785;BME280;44557;51.862;19.378;2022-12-01T06:23:55;100565.04;;;1.39;94.51
58785;BME280;44557;51.862;19.378;2022-12-01T06:24:56;100566.40;;;1.40;94.09
58785;BME280;44557;51.862;19.378;2022-12-01T06:25:58;100568.70;;;1.37;94.33
58785;BME280;44557;51.862;19.378;2022-12-01T06:26:59;100573.85;;;1.34;94.03
58785;BME280;44557;51.862;19.378;2022-12-01T06:28:01;100571.64;;;1.32;94.31
58785;BME280;44557;51.862;19.378;2022-12-01T06:29:03;100571.66;;;1.33;94.03
58785;BME280;44557;51.862;19.378;2022-12-01T06:30:05;100569.54;;;1.40;94.20
58785;BME280;44557;51.862;19.378;2022-12-01T06:31:07;100575.69;;;1.40;94.09
58785;BME280;44557;51.862;19.378;2022-12-01T06:32:09;100574.30;;;1.42;94.50
58785;BME280;44557;51.862;19.378;2022-12-01T06:33:11;100575.02;;;1.44;94.29
58785;BME280;44557;51.862;19.378;2022-12-01T06:34:12;100572.56;;;1.44;93.73
58785;BME280;44557;51.862;19.378;2022-12-01T06:35:14;100575.30;;;1.45;93.89
58785;BME280;44557;51.862;19.378;2022-12-01T06:36:15;100577.91;;;1.40;94.16
58785;BME280;44557;51.862;19.378;2022-12-01T06:37:17;100579.50;;;1.41;93.81
58785;BME280;44557;51.862;19.378;2022-12-01T06:38:18;100579.29;;;1.43;93.95
58785;BME280;44557;51.862;19.378;2022-12-01T06:39:20;100580.71;;;1.44;93.94
58785;BME280;44557;51.862;19.378;2022-12-01T06:40:22;100578.81;;;1.43;94.29
58785;BME280;44557;51.862;19.378;2022-12-01T06:41:23;100580.36;;;1.46;94.09
58785;BME280;44557;51.862;19.378;2022-12-01T06:42:28;100582.56;;;1.38;94.21
58785;BME280;44557;51.862;19.378;2022-12-01T06:43:30;100581.75;;;1.39;94.44
58785;BME280;44557;51.862;19.378;2022-12-01T06:44:32;100583.06;;;1.40;94.21
58785;BME280;44557;51.862;19.378;2022-12-01T06:45:34;100585.20;;;1.41;94.23
58785;BME280;44557;51.862;19.378;2022-12-01T06:46:36;100583.11;;;1.40;94.01
58785;BME280;44557;51.862;19.378;2022-12-01T06:47:38;100584.62;;;1.43;94.14
58785;BME280;44557;51.862;19.378;2022-12-01T06:48:39;100585.85;;;1.47;94.12
58785;BME280;44557;51.862;19.378;2022-12-01T06:49:41;100581.15;;;1.51;94.03
58785;BME280;44557;51.862;19.378;2022-12-01T06:50:43;100585.58;;;1.52;93.84
58785;BME280;44557;51.862;19.378;2022-12-01T06:51:45;100583.62;;;1.52;93.65
58785;BME280;44557;51.862;19.378;2022-12-01T06:52:46;100582.59;;;1.47;94.01
58785;BME280;44557;51.862;19.378;2022-12-01T06:53:52;100583.77;;;1.46;93.86
58785;BME280;44557;51.862;19.378;2022-12-01T06:54:55;100590.35;;;1.41;93.75
58785;BME280;44557;51.862;19.378;2022-12-01T06:56:01;100589.20;;;1.40;94.02
58785;BME280;44557;51.862;19.378;2022-12-01T06:57:03;100587.02;;;1.40;94.09
58785;BME280;44557;51.862;19.378;2022-12-01T06:58:05;100588.98;;;1.44;93.92
58785;BME280;44557;51.862;19.378;2022-12-01T06:59:07;100586.49;;;1.45;93.71
58785;BME280;44557;51.862;19.378;2022-12-01T07:00:09;100586.24;;;1.49;93.51
58785;BME280;44557;51.862;19.378;2022-12-01T07:01:11;100587.15;;;1.46;93.79
58785;BME280;44557;51.862;19.378;2022-12-01T07:02:13;100587.75;;;1.47;93.46
58785;BME280;44557;51.862;19.378;2022-12-01T07:03:15;100587.36;;;1.46;93.85
58785;BME280;44557;51.862;19.378;2022-12-01T07:04:16;100590.91;;;1.48;93.58
58785;BME280;44557;51.862;19.378;2022-12-01T07:05:18;100589.74;;;1.45;93.77
58785;BME280;44557;51.862;19.378;2022-12-01T07:06:20;100591.48;;;1.44;93.48
58785;BME280;44557;51.862;19.378;2022-12-01T07:07:22;100589.09;;;1.50;93.49
58785;BME280;44557;51.862;19.378;2022-12-01T07:08:25;100587.04;;;1.46;93.29
58785;BME280;44557;51.862;19.378;2022-12-01T07:09:26;100588.02;;;1.48;93.15
58785;BME280;44557;51.862;19.378;2022-12-01T07:10:28;100586.41;;;1.42;93.42
58785;BME280;44557;51.862;19.378;2022-12-01T07:11:29;100591.77;;;1.43;93.68
58785;BME280;44557;51.862;19.378;2022-12-01T07:12:33;100590.75;;;1.47;93.70
58785;BME280;44557;51.862;19.378;2022-12-01T07:13:35;100591.13;;;1.42;93.58
58785;BME280;44557;51.862;19.378;2022-12-01T07:14:36;100589.52;;;1.44;93.59
58785;BME280;44557;51.862;19.378;2022-12-01T07:15:38;100594.06;;;1.43;93.83
58785;BME280;44557;51.862;19.378;2022-12-01T07:16:40;100589.76;;;1.46;93.86
58785;BME280;44557;51.862;19.378;2022-12-01T07:17:41;100595.52;;;1.46;93.85
58785;BME280;44557;51.862;19.378;2022-12-01T07:18:43;100593.04;;;1.49;94.00
58785;BME280;44557;51.862;19.378;2022-12-01T07:19:45;100593.45;;;1.52;93.62
58785;BME280;44557;51.862;19.378;2022-12-01T07:20:47;100597.83;;;1.51;93.50
58785;BME280;44557;51.862;19.378;2022-12-01T07:21:48;100599.83;;;1.50;93.29
58785;BME280;44557;51.862;19.378;2022-12-01T07:22:50;100599.84;;;1.50;93.56
58785;BME280;44557;51.862;19.378;2022-12-01T07:23:53;100601.27;;;1.46;93.39
58785;BME280;44557;51.862;19.378;2022-12-01T07:24:55;100601.88;;;1.47;93.83
58785;BME280;44557;51.862;19.378;2022-12-01T07:26:04;100601.61;;;1.48;93.36
58785;BME280;44557;51.862;19.378;2022-12-01T07:27:06;100600.38;;;1.50;93.41
58785;BME280;44557;51.862;19.378;2022-12-01T07:28:08;100601.89;;;1.48;93.30
58785;BME280;44557;51.862;19.378;2022-12-01T07:29:10;100602.88;;;1.49;93.68
58785;BME280;44557;51.862;19.378;2022-12-01T07:30:12;100600.72;;;1.51;93.20
58785;BME280;44557;51.862;19.378;2022-12-01T07:31:18;100604.61;;;1.54;93.15
58785;BME280;44557;51.862;19.378;2022-12-01T07:32:19;100603.98;;;1.52;93.18
58785;BME280;44557;51.862;19.378;2022-12-01T07:33:21;100603.73;;;1.49;93.14
58785;BME280;44557;51.862;19.378;2022-12-01T07:34:22;100600.88;;;1.51;92.99
58785;BME280;44557;51.862;19.378;2022-12-01T07:35:25;100603.23;;;1.54;93.10
58785;BME280;44557;51.862;19.378;2022-12-01T07:36:26;100603.54;;;1.56;93.14
58785;BME280;44557;51.862;19.378;2022-12-01T07:37:28;100603.09;;;1.54;92.97
58785;BME280;44557;51.862;19.378;2022-12-01T07:38:31;100605.23;;;1.55;92.86
58785;BME280;44557;51.862;19.378;2022-12-01T07:39:33;100607.39;;;1.55;92.78
58785;BME280;44557;51.862;19.378;2022-12-01T07:40:34;100604.38;;;1.53;92.98
58785;BME280;44557;51.862;19.378;2022-12-01T07:41:36;100604.40;;;1.55;92.96
58785;BME280;44557;51.862;19.378;2022-12-01T07:42:40;100603.94;;;1.58;93.02
58785;BME280;44557;51.862;19.378;2022-12-01T07:43:42;100604.48;;;1.58;92.82
58785;BME280;44557;51.862;19.378;2022-12-01T07:44:44;100602.88;;;1.54;92.82
58785;BME280;44557;51.862;19.378;2022-12-01T07:45:45;100605.53;;;1.54;92.98
58785;BME280;44557;51.862;19.378;2022-12-01T07:46:47;100608.38;;;1.59;92.81
58785;BME280;44557;51.862;19.378;2022-12-01T07:47:51;100607.83;;;1.61;92.61
58785;BME280;44557;51.862;19.378;2022-12-01T07:48:55;100607.23;;;1.62;92.30
58785;BME280;44557;51.862;19.378;2022-12-01T07:49:56;100610.42;;;1.67;92.67
58785;BME280;44557;51.862;19.378;2022-12-01T07:50:58;100608.55;;;1.68;92.55
58785;BME280;44557;51.862;19.378;2022-12-01T07:51:59;100608.94;;;1.69;92.24
58785;BME280;44557;51.862;19.378;2022-12-01T07:53:01;100609.09;;;1.63;92.26
58785;BME280;44557;51.862;19.378;2022-12-01T07:54:04;100607.91;;;1.64;91.97
58785;BME280;44557;51.862;19.378;2022-12-01T07:55:06;100605.17;;;1.69;91.85
58785;BME280;44557;51.862;19.378;2022-12-01T07:56:08;100606.22;;;1.70;91.97
58785;BME280;44557;51.862;19.378;2022-12-01T07:57:10;100609.29;;;1.71;92.18
58785;BME280;44557;51.862;19.378;2022-12-01T07:58:15;100611.23;;;1.73;92.02
58785;BME280;44557;51.862;19.378;2022-12-01T07:59:17;100608.85;;;1.78;92.21
58785;BME280;44557;51.862;19.378;2022-12-01T08:00:19;100611.12;;;1.77;91.51
58785;BME280;44557;51.862;19.378;2022-12-01T08:01:22;100608.54;;;1.74;91.70
58785;BME280;44557;51.862;19.378;2022-12-01T08:02:25;100608.20;;;1.79;91.63
58785;BME280;44557;51.862;19.378;2022-12-01T08:03:26;100609.30;;;1.79;91.87
58785;BME280;44557;51.862;19.378;2022-12-01T08:04:28;100608.52;;;1.77;91.73
58785;BME280;44557;51.862;19.378;2022-12-01T08:05:30;100609.49;;;1.78;91.56
58785;BME280;44557;51.862;19.378;2022-12-01T08:06:31;100608.45;;;1.81;91.68
58785;BME280;44557;51.862;19.378;2022-12-01T08:07:33;100610.21;;;1.80;91.87
58785;BME280;44557;51.862;19.378;2022-12-01T08:08:37;100610.17;;;1.81;91.74
58785;BME280;44557;51.862;19.378;2022-12-01T08:09:39;100610.81;;;1.79;91.54
58785;BME280;44557;51.862;19.378;2022-12-01T08:10:40;100609.84;;;1.79;91.32
58785;BME280;44557;51.862;19.378;2022-12-01T08:11:42;100610.85;;;1.78;91.46
58785;BME280;44557;51.862;19.378;2022-12-01T08:12:45;100606.31;;;1.80;91.68
58785;BME280;44557;51.862;19.378;2022-12-01T08:13:48;100605.73;;;1.82;91.21
58785;BME280;44557;51.862;19.378;2022-12-01T08:14:50;100608.17;;;1.82;90.99
58785;BME280;44557;51.862;19.378;2022-12-01T08:15:51;100608.69;;;1.84;91.00
58785;BME280;44557;51.862;19.378;2022-12-01T08:16:53;100612.66;;;1.86;90.87
58785;BME280;44557;51.862;19.378;2022-12-01T08:17:55;100612.96;;;1.83;90.95
58785;BME280;44557;51.862;19.378;2022-12-01T08:18:56;100614.06;;;1.84;90.77
58785;BME280;44557;51.862;19.378;2022-12-01T08:19:58;100612.55;;;1.86;90.73
58785;BME280;44557;51.862;19.378;2022-12-01T08:21:00;100611.80;;;1.86;91.09
58785;BME280;44557;51.862;19.378;2022-12-01T08:22:01;100615.29;;;1.88;90.95
58785;BME280;44557;51.862;19.378;2022-12-01T08:23:03;100618.94;;;1.82;91.00
58785;BME280;44557;51.862;19.378;2022-12-01T08:24:05;100618.53;;;1.86;90.71
58785;BME280;44557;51.862;19.378;2022-12-01T08:25:07;100615.89;;;1.87;90.59
58785;BME280;44557;51.862;19.378;2022-12-01T08:26:15;100617.16;;;1.85;90.60
58785;BME280;44557;51.862;19.378;2022-12-01T08:27:17;100620.13;;;1.83;90.99
58785;BME280;44557;51.862;19.378;2022-12-01T08:28:19;100624.60;;;1.83;90.82
58785;BME280;44557;51.862;19.378;2022-12-01T08:29:21;100623.08;;;1.78;90.85
58785;BME280;44557;51.862;19.378;2022-12-01T08:30:22;100626.03;;;1.80;90.47
58785;BME280;44557;51.862;19.378;2022-12-01T08:31:27;100628.23;;;1.77;90.88
58785;BME280;44557;51.862;19.378;2022-12-01T08:32:29;100625.08;;;1.77;90.75
58785;BME280;44557;51.862;19.378;2022-12-01T08:33:31;100627.95;;;1.75;90.83
58785;BME280;44557;51.862;19.378;2022-12-01T08:34:34;100627.43;;;1.72;90.59
58785;BME280;44557;51.862;19.378;2022-12-01T08:35:37;100628.95;;;1.74;90.62
58785;BME280;44557;51.862;19.378;2022-12-01T08:36:39;100631.59;;;1.76;90.40
58785;BME280;44557;51.862;19.378;2022-12-01T08:37:40;100633.44;;;1.77;90.54
58785;BME280;44557;51.862;19.378;2022-12-01T08:38:43;100636.18;;;1.73;90.62
58785;BME280;44557;51.862;19.378;2022-12-01T08:39:45;100632.80;;;1.77;90.79
58785;BME280;44557;51.862;19.378;2022-12-01T08:40:46;100632.05;;;1.80;90.47
58785;BME280;44557;51.862;19.378;2022-12-01T08:41:48;100636.04;;;1.81;90.61
58785;BME280;44557;51.862;19.378;2022-12-01T08:42:51;100631.27;;;1.78;90.38
58785;BME280;44557;51.862;19.378;2022-12-01T08:43:53;100634.60;;;1.79;90.74
58785;BME280;44557;51.862;19.378;2022-12-01T08:44:55;100632.06;;;1.81;90.55
58785;BME280;44557;51.862;19.378;2022-12-01T08:45:58;100633.52;;;1.84;90.66
58785;BME280;44557;51.862;19.378;2022-12-01T08:47:00;100636.49;;;1.78;90.22
58785;BME280;44557;51.862;19.378;2022-12-01T08:48:02;100634.65;;;1.78;89.87
58785;BME280;44557;51.862;19.378;2022-12-01T08:49:05;100634.59;;;1.77;89.86
58785;BME280;44557;51.862;19.378;2022-12-01T08:50:07;100638.64;;;1.75;90.05
58785;BME280;44557;51.862;19.378;2022-12-01T08:51:11;100636.27;;;1.76;89.89
58785;BME280;44557;51.862;19.378;2022-12-01T08:52:13;100638.94;;;1.77;89.87
58785;BME280;44557;51.862;19.378;2022-12-01T08:53:15;100635.98;;;1.77;89.87
58785;BME280;44557;51.862;19.378;2022-12-01T08:54:16;100634.63;;;1.80;89.61
58785;BME280;44557;51.862;19.378;2022-12-01T08:55:19;100639.02;;;1.81;89.99
58785;BME280;44557;51.862;19.378;2022-12-01T08:56:25;100638.77;;;1.84;89.64
58785;BME280;44557;51.862;19.378;2022-12-01T08:57:28;100635.42;;;1.86;89.47
58785;BME280;44557;51.862;19.378;2022-12-01T08:58:30;100639.15;;;1.89;89.59
58785;BME280;44557;51.862;19.378;2022-12-01T08:59:31;100636.46;;;1.86;89.62
58785;BME280;44557;51.862;19.378;2022-12-01T09:00:33;100639.67;;;1.82;89.57
58785;BME280;44557;51.862;19.378;2022-12-01T09:01:35;100638.16;;;1.81;89.38
58785;BME280;44557;51.862;19.378;2022-12-01T09:02:52;100635.89;;;1.82;89.36
58785;BME280;44557;51.862;19.378;2022-12-01T09:03:56;100633.98;;;1.81;89.68
58785;BME280;44557;51.862;19.378;2022-12-01T09:05:10;100635.61;;;1.83;89.53
58785;BME280;44557;51.862;19.378;2022-12-01T09:06:17;100635.45;;;1.83;89.38
58785;BME280;44557;51.862;19.378;2022-12-01T09:07:21;100635.73;;;1.90;89.39
58785;BME280;44557;51.862;19.378;2022-12-01T09:08:23;100634.02;;;1.85;89.16
58785;BME280;44557;51.862;19.378;2022-12-01T09:09:35;100631.50;;;1.84;89.29
58785;BME280;44557;51.862;19.378;2022-12-01T09:10:37;100632.32;;;1.85;89.33
58785;BME280;44557;51.862;19.378;2022-12-01T09:11:38;100628.09;;;1.86;88.92
58785;BME280;44557;51.862;19.378;2022-12-01T09:12:40;100627.54;;;1.85;88.75
58785;BME280;44557;51.862;19.378;2022-12-01T09:13:44;100625.42;;;1.85;88.49
58785;BME280;44557;51.862;19.378;2022-12-01T09:14:46;100622.73;;;1.86;88.69
58785;BME280;44557;51.862;19.378;2022-12-01T09:16:04;100626.83;;;1.90;88.05
58785;BME280;44557;51.862;19.378;2022-12-01T09:17:07;100626.44;;;1.89;88.30
58785;BME280;44557;51.862;19.378;2022-12-01T09:18:09;100623.27;;;1.92;88.41
58785;BME280;44557;51.862;19.378;2022-12-01T09:19:12;100619.32;;;1.97;88.28
58785;BME280;44557;51.862;19.378;2022-12-01T09:20:14;100621.96;;;2.01;88.09
58785;BME280;44557;51.862;19.378;2022-12-01T09:21:21;100618.06;;;2.02;88.25
58785;BME280;44557;51.862;19.378;2022-12-01T09:22:24;100616.95;;;1.99;88.27
58785;BME280;44557;51.862;19.378;2022-12-01T09:23:26;100615.91;;;1.98;88.61
58785;BME280;44557;51.862;19.378;2022-12-01T09:24:27;100616.52;;;2.00;88.32
58785;BME280;44557;51.862;19.378;2022-12-01T09:25:29;100613.16;;;2.00;88.14
58785;BME280;44557;51.862;19.378;2022-12-01T09:26:31;100612.65;;;1.96;88.13
58785;BME280;44557;51.862;19.378;2022-12-01T09:27:33;100612.10;;;1.97;88.04
58785;BME280;44557;51.862;19.378;2022-12-01T09:28:35;100611.98;;;1.96;87.93
58785;BME280;44557;51.862;19.378;2022-12-01T09:29:37;100608.30;;;1.96;88.34
58785;BME280;44557;51.862;19.378;2022-12-01T09:30:38;100608.53;;;2.00;88.27
58785;BME280;44557;51.862;19.378;2022-12-01T09:31:40;100611.70;;;2.01;88.01
58785;BME280;44557;51.862;19.378;2022-12-01T09:32:42;100608.32;;;1.99;88.39
58785;BME280;44557;51.862;19.378;2022-12-01T09:33:44;100612.70;;;1.98;88.44
58785;BME280;44557;51.862;19.378;2022-12-01T09:34:48;100608.80;;;2.00;88.28
58785;BME280;44557;51.862;19.378;2022-12-01T09:35:50;100608.98;;;2.01;87.76
58785;BME280;44557;51.862;19.378;2022-12-01T09:36:55;100610.98;;;2.05;87.80
58785;BME280;44557;51.862;19.378;2022-12-01T09:37:58;100609.83;;;2.05;88.27
58785;BME280;44557;51.862;19.378;2022-12-01T09:39:00;100609.00;;;2.11;88.06
58785;BME280;44557;51.862;19.378;2022-12-01T09:40:02;100608.63;;;2.12;87.80
58785;BME280;44557;51.862;19.378;2022-12-01T09:41:33;100607.29;;;2.14;87.79
58785;BME280;44557;51.862;19.378;2022-12-01T09:42:32;100610.67;;;2.23;87.84
58785;BME280;44557;51.862;19.378;2022-12-01T09:43:44;100605.19;;;2.25;87.92
58785;BME280;44557;51.862;19.378;2022-12-01T09:44:50;100606.20;;;2.28;87.92
58785;BME280;44557;51.862;19.378;2022-12-01T09:46:02;100601.40;;;2.28;87.71
58785;BME280;44557;51.862;19.378;2022-12-01T09:47:30;100595.38;;;2.35;87.59
58785;BME280;44557;51.862;19.378;2022-12-01T09:48:37;100593.36;;;2.37;87.54
58785;BME280;44557;51.862;19.378;2022-12-01T09:50:50;100594.66;;;2.28;87.23
58785;BME280;44557;51.862;19.378;2022-12-01T09:51:52;100589.20;;;2.31;87.58
58785;BME280;44557;51.862;19.378;2022-12-01T09:53:08;100589.36;;;2.30;87.28
58785;BME280;44557;51.862;19.378;2022-12-01T09:54:15;100584.13;;;2.29;87.40
58785;BME280;44557;51.862;19.378;2022-12-01T09:55:20;100586.64;;;2.32;87.40
58785;BME280;44557;51.862;19.378;2022-12-01T09:56:28;100585.54;;;2.38;87.15
58785;BME280;44557;51.862;19.378;2022-12-01T09:57:36;100585.21;;;2.45;87.18
58785;BME280;44557;51.862;19.378;2022-12-01T09:58:40;100581.83;;;2.43;87.51
58785;BME280;44557;51.862;19.378;2022-12-01T09:59:44;100579.97;;;2.43;87.79
58785;BME280;44557;51.862;19.378;2022-12-01T10:00:47;100578.71;;;2.43;87.49
58785;BME280;44557;51.862;19.378;2022-12-01T10:01:54;100579.15;;;2.41;86.90
58785;BME280;44557;51.862;19.378;2022-12-01T10:04:37;100574.98;;;2.36;86.20
58785;BME280;44557;51.862;19.378;2022-12-01T10:05:47;100574.66;;;2.37;86.27
58785;BME280;44557;51.862;19.378;2022-12-01T10:07:03;100574.06;;;2.37;86.27
58785;BME280;44557;51.862;19.378;2022-12-01T10:08:07;100573.16;;;2.41;86.38
58785;BME280;44557;51.862;19.378;2022-12-01T10:09:19;100571.63;;;2.38;86.08
58785;BME280;44557;51.862;19.378;2022-12-01T10:10:27;100570.86;;;2.40;85.79
58785;BME280;44557;51.862;19.378;2022-12-01T10:11:34;100569.96;;;2.43;86.04
58785;BME280;44557;51.862;19.378;2022-12-01T10:12:36;100567.33;;;2.38;85.93
58785;BME280;44557;51.862;19.378;2022-12-01T10:13:38;100571.19;;;2.37;85.73
58785;BME280;44557;51.862;19.378;2022-12-01T10:14:43;100567.78;;;2.40;86.07